Time;durP1;ratioP1;P1;durP2;ratioP2;P2;SDS_P1;SDS_P2;PMS_P1;PMS_P2;Temp;Humidity;BMP_temperature;BMP_pressure;BME280_temperature;BME280_humidity;BME280_pressure;Samples;Min_cycle;Max_cycle;Signal;HPM_P1;HPM_P2
2022/10/31 00:01:28;;;;;;;21.60;9.75;;;;;;;13.03;100.00;101974.81;5091942;28;20016;-69
2022/10/31 00:03:53;;;;;;;17.48;8.55;;;;;;;13.00;100.00;101973.31;5092095;28;20107;-69
2022/10/31 00:06:20;;;;;;;21.08;8.80;;;;;;;13.02;100.00;101979.34;5092004;28;20131;-69
2022/10/31 00:08:47;;;;;;;22.77;11.48;;;;;;;13.02;100.00;101973.97;5091761;28;20032;-70
2022/10/31 00:11:13;;;;;;;18.45;9.88;;;;;;;13.02;100.00;101984.69;5091878;28;20099;-69
2022/10/31 00:13:38;;;;;;;23.33;11.40;;;;;;;13.01;100.00;101980.34;5091491;28;20119;-69
2022/10/31 00:16:04;;;;;;;22.30;10.32;;;;;;;12.97;100.00;101979.06;5091824;28;20044;-69
2022/10/31 00:18:30;;;;;;;22.35;11.00;;;;;;;12.93;100.00;101977.75;5057019;28;20578;-69
2022/10/31 00:20:59;;;;;;;19.35;9.43;;;;;;;12.94;100.00;101987.44;5091013;28;20040;-69
2022/10/31 00:23:26;;;;;;;19.90;11.47;;;;;;;12.87;100.00;101981.16;5091663;28;20094;-69
2022/10/31 00:25:51;;;;;;;19.92;10.43;;;;;;;12.79;100.00;101976.72;5073624;28;20059;-69
2022/10/31 00:28:17;;;;;;;21.20;10.77;;;;;;;12.85;100.00;101985.88;5091514;28;20126;-70
2022/10/31 00:30:42;;;;;;;19.25;9.05;;;;;;;12.79;100.00;101984.75;5091439;28;20119;-69
2022/10/31 00:33:07;;;;;;;19.88;9.77;;;;;;;12.76;100.00;101978.94;5073071;28;20143;-69
2022/10/31 00:35:33;;;;;;;18.35;10.20;;;;;;;12.76;100.00;101989.63;5090995;28;20474;-69
2022/10/31 00:37:58;;;;;;;22.75;12.23;;;;;;;12.70;100.00;101978.66;5073153;28;20032;-69
2022/10/31 00:40:23;;;;;;;19.95;10.15;;;;;;;12.65;100.00;101970.38;5090891;28;20111;-69
2022/10/31 00:42:49;;;;;;;19.02;10.23;;;;;;;12.66;100.00;101980.03;5090882;28;20437;-69
2022/10/31 00:45:14;;;;;;;20.30;10.88;;;;;;;12.65;100.00;101983.75;5090839;28;20060;-69
2022/10/31 00:47:39;;;;;;;22.35;12.20;;;;;;;12.61;100.00;101978.94;5090825;28;20153;-69
2022/10/31 00:50:05;;;;;;;19.92;10.65;;;;;;;12.54;100.00;101969.97;5090700;28;20031;-69
2022/10/31 00:52:31;;;;;;;20.65;9.82;;;;;;;12.41;100.00;101966.06;5090670;28;20113;-69
2022/10/31 00:54:56;;;;;;;19.80;10.57;;;;;;;12.34;100.00;101969.63;5090535;28;20032;-69
2022/10/31 00:57:21;;;;;;;20.15;9.57;;;;;;;12.27;100.00;101973.03;5090712;28;20032;-70
2022/10/31 00:59:47;;;;;;;19.33;9.13;;;;;;;12.16;100.00;101965.44;5090470;28;20395;-69
2022/10/31 01:02:12;;;;;;;21.27;10.07;;;;;;;12.15;100.00;101966.44;5072599;28;20428;-69
2022/10/31 01:04:37;;;;;;;20.08;9.45;;;;;;;12.12;100.00;101979.34;5072427;28;20482;-69
2022/10/31 01:07:03;;;;;;;16.02;8.80;;;;;;;12.05;100.00;101981.88;5072486;28;20550;-69
2022/10/31 01:09:28;;;;;;;19.30;9.35;;;;;;;12.03;100.00;101983.94;5090425;28;20028;-69
2022/10/31 01:11:54;;;;;;;16.45;8.80;;;;;;;11.99;100.00;101979.94;5072572;28;20028;-69
2022/10/31 01:14:19;;;;;;;16.95;8.45;;;;;;;11.94;100.00;101977.78;5089610;28;20814;-69
2022/10/31 01:16:44;;;;;;;19.58;8.88;;;;;;;11.88;100.00;101978.50;5071593;28;20386;-69
2022/10/31 01:19:10;;;;;;;15.48;7.90;;;;;;;11.87;100.00;101984.88;5089425;28;20035;-69
2022/10/31 01:21:35;;;;;;;18.38;9.25;;;;;;;11.72;100.00;101974.06;5070336;28;20036;-69
2022/10/31 01:24:03;;;;;;;19.52;8.93;;;;;;;11.63;100.00;101956.41;5070317;28;20036;-69
2022/10/31 01:26:30;;;;;;;19.95;11.73;;;;;;;11.56;100.00;101956.31;5090191;28;20103;-69
2022/10/31 01:28:58;;;;;;;18.52;9.88;;;;;;;11.55;100.00;101964.47;5089636;28;20678;-69
2022/10/31 01:31:27;;;;;;;18.92;9.02;;;;;;;11.53;100.00;101958.50;5089556;28;20499;-69
2022/10/31 01:33:54;;;;;;;21.55;9.77;;;;;;;11.51;100.00;101949.81;5089679;28;20027;-70
2022/10/31 01:36:25;;;;;;;16.48;8.00;;;;;;;11.47;100.00;101956.50;5089397;28;20475;-69
2022/10/31 01:38:53;;;;;;;17.05;7.80;;;;;;;11.44;100.00;101957.69;5089461;28;20487;-69
2022/10/31 01:41:25;;;;;;;17.00;8.70;;;;;;;11.43;100.00;101964.06;5088980;28;20035;-69
2022/10/31 01:44:13;;;;;;;17.35;9.27;;;;;;;11.45;100.00;101955.84;5089653;28;20352;-69
2022/10/31 01:46:47;;;;;;;19.40;9.48;;;;;;;11.44;100.00;101964.88;5051109;28;20036;-69
2022/10/31 01:49:39;;;;;;;19.80;10.23;;;;;;;11.46;100.00;101962.88;5089684;28;20031;-69
2022/10/31 01:52:11;;;;;;;19.85;10.45;;;;;;;11.42;100.00;101967.72;5089495;28;20040;-69
2022/10/31 01:54:50;;;;;;;19.58;9.98;;;;;;;11.40;100.00;101965.25;5089464;28;20520;-69
2022/10/31 01:57:18;;;;;;;20.63;9.90;;;;;;;11.38;100.00;101967.25;5070053;28;20490;-69
2022/10/31 01:59:47;;;;;;;19.88;10.48;;;;;;;11.40;100.00;101967.91;5069871;28;20056;-69
2022/10/31 02:02:14;;;;;;;23.40;10.90;;;;;;;11.45;100.00;101967.41;5076496;28;20032;-69
2022/10/31 02:04:40;;;;;;;17.65;10.05;;;;;;;11.39;100.00;101973.41;5089140;28;20115;-69
2022/10/31 02:07:12;;;;;;;20.75;9.73;;;;;;;11.33;100.00;101961.59;5089215;28;20475;-69
2022/10/31 02:09:39;;;;;;;19.92;10.32;;;;;;;11.29;100.00;101951.41;5089216;28;20118;-69
2022/10/31 02:12:06;;;;;;;19.67;10.02;;;;;;;11.19;100.00;101962.34;5089213;28;20027;-69
2022/10/31 02:14:31;;;;;;;20.73;10.75;;;;;;;11.12;100.00;101959.50;5088548;28;20032;-69
2022/10/31 02:16:57;;;;;;;19.92;11.55;;;;;;;11.08;100.00;101960.88;5089071;28;20073;-69
2022/10/31 02:19:51;;;;;;;19.88;10.63;;;;;;;11.03;100.00;101949.88;5089101;28;20119;-69
2022/10/31 02:22:35;;;;;;;18.00;9.25;;;;;;;11.02;100.00;101956.22;5069745;28;20090;-69
2022/10/31 02:25:18;;;;;;;18.75;10.77;;;;;;;11.07;100.00;101953.03;5069784;28;20016;-69
2022/10/31 02:28:01;;;;;;;23.33;11.43;;;;;;;11.07;100.00;101953.03;5069818;28;20467;-69
2022/10/31 02:30:44;;;;;;;21.20;10.65;;;;;;;11.07;100.00;101958.38;5069622;28;20059;-69
2022/10/31 02:33:30;;;;;;;18.70;10.70;;;;;;;11.03;100.00;101951.69;5086759;28;20051;-69
2022/10/31 02:36:05;;;;;;;17.00;9.13;;;;;;;10.94;100.00;101946.38;5071226;28;20942;-69
2022/10/31 02:38:49;;;;;;;18.00;9.25;;;;;;;10.91;100.00;101946.75;5089489;28;20034;-69
2022/10/31 02:41:31;;;;;;;16.05;10.13;;;;;;;10.88;100.00;101952.44;5089383;28;20051;-69
2022/10/31 02:44:29;;;;;;;18.45;9.35;;;;;;;10.89;100.00;101950.59;5089247;28;20032;-69
2022/10/31 02:47:22;;;;;;;17.60;9.10;;;;;;;10.87;100.00;101955.25;5089354;28;20024;-69
2022/10/31 02:49:59;;;;;;;21.30;10.95;;;;;;;10.83;100.00;101948.63;5082654;28;20101;-69
2022/10/31 02:52:30;;;;;;;19.10;9.82;;;;;;;10.83;100.00;101944.09;5091565;28;20063;-69
2022/10/31 02:54:55;;;;;;;21.75;10.57;;;;;;;10.81;100.00;101943.44;5093327;28;20028;-69
2022/10/31 02:57:31;;;;;;;20.27;10.80;;;;;;;10.85;100.00;101944.75;5093247;28;20058;-69
2022/10/31 03:00:03;;;;;;;20.23;10.20;;;;;;;10.84;100.00;101944.94;5093379;28;20032;-69
2022/10/31 03:02:31;;;;;;;;;;;;;;;10.90;100.00;101950.44;5093693;28;20510;-69
2022/10/31 03:05:18;;;;;;;18.42;9.38;;;;;;;10.88;100.00;101946.25;5074760;28;20260;-69
2022/10/31 03:08:03;;;;;;;17.48;8.57;;;;;;;10.88;100.00;101949.75;5093235;28;20059;-69
2022/10/31 03:10:39;;;;;;;18.80;8.95;;;;;;;10.77;100.00;101944.78;5093228;28;20028;-69
2022/10/31 03:13:04;;;;;;;18.70;10.40;;;;;;;10.80;100.00;101952.44;5092906;28;20019;-69
2022/10/31 03:15:44;;;;;;;18.63;9.48;;;;;;;10.75;100.00;101960.13;5092461;28;20111;-69
2022/10/31 03:18:21;;;;;;;19.83;9.38;;;;;;;10.75;100.00;101952.13;5074417;28;20034;-69
2022/10/31 03:21:04;;;;;;;18.38;11.15;;;;;;;10.74;100.00;101956.63;5092944;28;20024;-69
2022/10/31 03:23:33;;;;;;;16.40;9.07;;;;;;;10.77;100.00;101952.81;5074183;28;20395;-69
2022/10/31 03:26:03;;;;;;;16.65;8.65;;;;;;;10.79;100.00;101961.44;5092542;28;20115;-69
2022/10/31 03:28:33;;;;;;;14.48;7.93;;;;;;;10.78;100.00;101954.44;5092806;28;20028;-69
2022/10/31 03:31:01;;;;;;;18.88;9.65;;;;;;;10.83;100.00;101968.13;5092772;28;20076;-69
2022/10/31 03:33:31;;;;;;;23.85;11.00;;;;;;;10.88;100.00;101952.44;5092512;28;20629;-69
2022/10/31 03:36:01;;;;;;;18.75;8.93;;;;;;;10.83;100.00;101949.44;5074244;28;20027;-69
2022/10/31 03:38:28;;;;;;;15.15;8.27;;;;;;;10.75;100.00;101946.78;5092696;28;20442;-69
2022/10/31 03:40:58;;;;;;;18.88;9.77;;;;;;;10.68;100.00;101949.28;5092643;28;20036;-69
2022/10/31 03:43:28;;;;;;;16.75;9.50;;;;;;;10.64;100.00;101942.66;5092443;28;20020;-69
2022/10/31 03:45:54;;;;;;;21.42;9.18;;;;;;;10.57;100.00;101941.66;5092496;28;20055;-69
2022/10/31 03:48:21;;;;;;;18.00;9.15;;;;;;;10.52;100.00;101944.81;5092278;28;20147;-69
2022/10/31 03:51:14;;;;;;;17.17;10.05;;;;;;;10.53;100.00;101943.00;5092277;28;20035;-69
2022/10/31 03:53:47;;;;;;;16.52;8.65;;;;;;;10.44;100.00;101936.00;5092347;28;20112;-69
2022/10/31 03:56:30;;;;;;;16.80;8.68;;;;;;;10.44;100.00;101952.03;5092375;28;20059;-69
2022/10/31 03:59:00;;;;;;;16.83;9.07;;;;;;;10.28;100.00;101944.88;5073729;28;20088;-69
2022/10/31 04:01:28;;;;;;;17.98;10.30;;;;;;;10.28;100.00;101951.03;5091863;28;20028;-69
2022/10/31 04:03:56;;;;;;;19.50;9.75;;;;;;;10.22;100.00;101948.19;5091142;28;20031;-69
2022/10/31 04:06:24;;;;;;;21.33;9.93;;;;;;;10.19;100.00;101944.00;5092049;28;20027;-69
2022/10/31 04:08:56;;;;;;;17.08;8.45;;;;;;;10.17;100.00;101938.00;5092113;28;20043;-69
2022/10/31 04:11:24;;;;;;;;;;;;;;;10.20;100.00;101939.50;5092428;28;20367;-69
2022/10/31 04:13:50;;;;;;;14.90;7.72;;;;;;;10.08;100.00;101936.34;5091902;28;20350;-69
2022/10/31 04:16:16;;;;;;;13.38;7.90;;;;;;;10.06;100.00;101949.84;5091795;28;20055;-69
2022/10/31 04:18:41;;;;;;;14.57;6.60;;;;;;;10.05;100.00;101955.31;5091983;28;20058;-69
2022/10/31 04:21:07;;;;;;;15.00;8.02;;;;;;;9.97;100.00;101956.16;5091252;28;20447;-69
2022/10/31 04:23:34;;;;;;;16.70;7.18;;;;;;;9.87;100.00;101953.63;5091605;28;20082;-69
2022/10/31 04:25:59;;;;;;;17.48;8.27;;;;;;;9.76;100.00;101943.31;5091615;28;20077;-69
2022/10/31 04:28:25;;;;;;;11.85;6.15;;;;;;;9.80;100.00;101955.31;5073293;28;20032;-69
2022/10/31 04:30:51;;;;;;;12.80;6.95;;;;;;;9.81;100.00;101958.81;5091800;28;20433;-69
2022/10/31 04:33:17;;;;;;;12.23;6.38;;;;;;;9.75;100.00;101951.47;5090114;28;20406;-69
2022/10/31 04:35:42;;;;;;;14.65;7.30;;;;;;;9.68;100.00;101950.47;5090942;28;20028;-69
2022/10/31 04:38:07;;;;;;;12.40;7.00;;;;;;;9.67;100.00;101949.63;5090811;28;20030;-69
2022/10/31 04:40:33;;;;;;;18.35;9.18;;;;;;;9.71;100.00;101955.44;5090947;28;20032;-69
2022/10/31 04:42:58;;;;;;;17.08;7.80;;;;;;;9.75;100.00;101941.66;5090624;28;20027;-69
2022/10/31 04:45:23;;;;;;;14.98;8.13;;;;;;;9.71;100.00;101947.47;5090861;28;20043;-69
2022/10/31 04:47:49;;;;;;;14.43;7.03;;;;;;;9.66;100.00;101930.13;5090586;28;20024;-69
2022/10/31 04:50:14;;;;;;;18.08;7.85;;;;;;;9.75;100.00;101946.97;5072766;28;20142;-69
2022/10/31 04:52:41;;;;;;;16.20;8.32;;;;;;;9.79;100.00;101944.81;5090449;28;20067;-69
2022/10/31 04:55:07;;;;;;;16.92;8.35;;;;;;;9.68;100.00;101935.31;5090507;28;20030;-69
2022/10/31 04:57:32;;;;;;;12.95;7.75;;;;;;;9.74;100.00;101937.31;5090581;28;20024;-69
2022/10/31 04:59:58;;;;;;;16.63;8.00;;;;;;;9.77;100.00;101938.81;5090428;28;20412;-69
2022/10/31 05:02:23;;;;;;;16.58;8.23;;;;;;;9.78;100.00;101941.31;5090599;28;20081;-69
2022/10/31 05:04:48;;;;;;;19.77;8.00;;;;;;;9.79;100.00;101947.47;5090327;28;20054;-69
2022/10/31 05:07:14;;;;;;;17.60;7.97;;;;;;;9.79;100.00;101939.47;5072682;28;20040;-69
2022/10/31 05:09:39;;;;;;;14.63;8.65;;;;;;;9.81;100.00;101937.50;5090220;28;20055;-69
2022/10/31 05:12:04;;;;;;;17.00;7.72;;;;;;;9.82;100.00;101931.16;5090026;28;20032;-69
2022/10/31 05:14:30;;;;;;;19.20;9.10;;;;;;;9.77;100.00;101933.47;5089547;28;20032;-69
2022/10/31 05:16:55;;;;;;;16.73;8.30;;;;;;;9.68;100.00;101921.97;5089288;28;20043;-69
2022/10/31 05:19:20;;;;;;;13.52;7.22;;;;;;;9.70;100.00;101919.16;5089933;28;20060;-69
2022/10/31 05:21:46;;;;;;;15.45;8.82;;;;;;;9.77;100.00;101931.66;5089519;28;20036;-69
2022/10/31 05:24:11;;;;;;;18.13;8.75;;;;;;;9.77;100.00;101922.81;5089888;28;20028;-69
2022/10/31 05:26:36;;;;;;;15.43;8.93;;;;;;;9.80;100.00;101930.50;5089859;28;20028;-69
2022/10/31 05:29:02;;;;;;;17.83;8.75;;;;;;;9.79;100.00;101934.97;5089467;28;20028;-69
2022/10/31 05:31:27;;;;;;;17.92;9.43;;;;;;;9.74;100.00;101926.66;5089682;28;20078;-69
2022/10/31 05:33:52;;;;;;;15.60;7.75;;;;;;;9.72;100.00;101927.81;5089906;28;20047;-69
2022/10/31 05:36:18;;;;;;;12.50;7.35;;;;;;;9.70;100.00;101930.66;5071943;28;20043;-71
2022/10/31 05:38:43;;;;;;;17.50;7.72;;;;;;;9.66;100.00;101924.78;5089639;28;20077;-69
2022/10/31 05:41:09;;;;;;;15.00;8.35;;;;;;;9.58;100.00;101929.28;5054991;28;20038;-69
2022/10/31 05:43:35;;;;;;;14.05;7.30;;;;;;;9.57;100.00;101922.31;5089597;28;20115;-69
2022/10/31 05:46:00;;;;;;;14.93;8.57;;;;;;;9.59;100.00;101921.16;5089351;28;20530;-69
2022/10/31 05:48:25;;;;;;;18.40;8.40;;;;;;;9.58;100.00;101919.47;5071576;28;20027;-69
2022/10/31 05:50:51;;;;;;;15.07;7.95;;;;;;;9.59;100.00;101917.66;5089560;28;20020;-69
2022/10/31 05:53:17;;;;;;;16.98;9.68;;;;;;;9.59;100.00;101922.97;5089375;28;20036;-69
2022/10/31 05:55:43;;;;;;;19.15;8.85;;;;;;;9.59;100.00;101921.16;5088943;28;20040;-69
2022/10/31 05:58:09;;;;;;;19.15;9.80;;;;;;;9.62;100.00;101910.16;5088733;28;20032;-69
2022/10/31 06:00:34;;;;;;;15.55;8.15;;;;;;;9.62;100.00;101912.00;5088990;28;20035;-69
2022/10/31 06:03:05;;;;;;;17.20;9.48;;;;;;;9.56;100.00;101913.50;5089302;28;20060;-69
2022/10/31 06:05:31;;;;;;;15.73;8.35;;;;;;;9.54;100.00;101910.16;5089231;28;20036;-69
2022/10/31 06:07:57;;;;;;;18.58;8.52;;;;;;;9.53;100.00;101913.78;5089487;28;20089;-69
2022/10/31 06:10:22;;;;;;;16.42;8.43;;;;;;;9.51;100.00;101913.16;5071252;28;20032;-69
2022/10/31 06:12:48;;;;;;;17.27;9.80;;;;;;;9.52;100.00;101905.97;5089010;28;20038;-69
2022/10/31 06:15:14;;;;;;;17.38;8.98;;;;;;;9.51;100.00;101910.47;5089127;28;20429;-70
2022/10/31 06:17:39;;;;;;;18.38;9.20;;;;;;;9.50;100.00;101907.97;5088946;28;20031;-69
2022/10/31 06:20:06;;;;;;;16.05;8.90;;;;;;;9.50;100.00;101908.78;5089071;28;20027;-69
2022/10/31 06:22:31;;;;;;;19.85;9.80;;;;;;;9.49;100.00;101907.16;5070807;28;20036;-69
2022/10/31 06:24:57;;;;;;;25.73;11.65;;;;;;;9.46;100.00;101902.16;5088459;28;20028;-69
2022/10/31 06:27:23;;;;;;;27.15;12.93;;;;;;;9.46;100.00;101910.13;5088797;28;20028;-69
2022/10/31 06:29:48;;;;;;;18.52;10.30;;;;;;;9.47;100.00;101911.78;5088832;28;20062;-69
2022/10/31 06:32:14;;;;;;;19.73;11.77;;;;;;;9.49;100.00;101903.66;5088186;28;20498;-69
2022/10/31 06:34:40;;;;;;;19.60;9.10;;;;;;;9.47;100.00;101906.47;5088820;28;20043;-69
2022/10/31 06:37:07;;;;;;;17.02;8.93;;;;;;;9.48;100.00;101905.47;5088461;28;20028;-69
2022/10/31 06:39:32;;;;;;;15.60;9.23;;;;;;;9.46;100.00;101898.63;5081112;28;20103;-69
2022/10/31 06:41:58;;;;;;;19.50;10.30;;;;;;;9.43;100.00;101900.66;5067619;28;20124;-69
2022/10/31 06:44:24;;;;;;;17.27;9.20;;;;;;;9.47;100.00;101911.78;5069289;28;20104;-69
2022/10/31 06:46:49;;;;;;;27.42;12.88;;;;;;;9.44;100.00;101906.78;5069102;28;20028;-69
2022/10/31 06:49:15;;;;;;;22.35;11.35;;;;;;;9.47;100.00;101914.47;5069330;28;20110;-69
2022/10/31 06:51:40;;;;;;;24.48;12.02;;;;;;;9.47;100.00;101917.13;5069222;28;20039;-71
2022/10/31 06:54:05;;;;;;;21.02;10.30;;;;;;;9.50;100.00;101922.13;5069231;28;20032;-69
2022/10/31 06:56:31;;;;;;;23.30;11.70;;;;;;;9.51;100.00;101912.28;5069077;28;20115;-69
2022/10/31 06:58:56;;;;;;;22.40;11.50;;;;;;;9.55;100.00;101914.47;5069198;28;20082;-69
2022/10/31 07:01:21;;;;;;;20.08;10.77;;;;;;;9.57;100.00;101909.81;5069106;28;20391;-69
2022/10/31 07:03:47;;;;;;;18.77;10.50;;;;;;;9.61;100.00;101918.31;5069328;28;20471;-69
2022/10/31 07:06:12;;;;;;;20.17;11.25;;;;;;;9.65;100.00;101907.16;5067372;28;20106;-69
2022/10/31 07:08:37;;;;;;;17.30;9.65;;;;;;;9.71;100.00;101908.34;5069220;28;20459;-70
2022/10/31 07:11:03;;;;;;;23.35;10.65;;;;;;;9.75;100.00;101912.34;5069245;28;20094;-69
2022/10/31 07:13:28;;;;;;;21.25;9.32;;;;;;;9.79;100.00;101899.50;5067132;28;20032;-70
2022/10/31 07:15:59;;;;;;;18.63;9.93;;;;;;;9.82;100.00;101894.72;5050587;28;20028;-69
2022/10/31 07:18:24;;;;;;;24.17;11.20;;;;;;;9.80;100.00;101887.88;5069044;28;20387;-71
2022/10/31 07:20:51;;;;;;;18.85;11.27;;;;;;;9.96;100.00;101908.38;5073129;28;20078;-70
2022/10/31 07:23:16;;;;;;;27.63;12.70;;;;;;;9.96;100.00;101911.03;5088144;28;20050;-69
2022/10/31 07:25:41;;;;;;;22.58;12.57;;;;;;;10.01;100.00;101908.69;5087750;28;20487;-69
2022/10/31 07:28:07;;;;;;;23.63;11.30;;;;;;;10.02;100.00;101905.84;5088183;28;20036;-69
2022/10/31 07:30:33;;;;;;;24.38;12.00;;;;;;;10.08;100.00;101910.50;5088219;28;20067;-69
2022/10/31 07:32:59;;;;;;;21.55;12.15;;;;;;;10.16;100.00;101912.34;5087603;28;20590;-69
2022/10/31 07:35:26;;;;;;;23.25;13.27;;;;;;;10.23;100.00;101913.34;5087989;28;20036;-69
2022/10/31 07:37:52;;;;;;;22.67;11.80;;;;;;;10.28;100.00;101912.88;5087805;28;20490;-69
2022/10/31 07:40:18;;;;;;;21.85;12.32;;;;;;;10.35;100.00;101911.19;5091587;28;20059;-69
2022/10/31 07:42:49;;;;;;;20.67;10.88;;;;;;;10.46;100.00;101928.69;5091853;28;20043;-69
2022/10/31 07:45:19;;;;;;;24.50;13.82;;;;;;;10.52;100.00;101926.16;5091889;28;20024;-69
2022/10/31 07:47:50;;;;;;;22.35;11.95;;;;;;;10.46;100.00;101920.69;5091797;28;20032;-68
2022/10/31 07:50:21;;;;;;;20.65;11.77;;;;;;;10.53;100.00;101930.50;5091601;28;20098;-69
2022/10/31 07:52:46;;;;;;;25.88;10.70;;;;;;;10.59;100.00;101930.84;5091623;28;20100;-69
2022/10/31 07:55:12;;;;;;;21.25;11.35;;;;;;;10.65;100.00;101930.97;5091650;28;20024;-69
2022/10/31 07:57:38;;;;;;;22.83;12.15;;;;;;;10.73;100.00;101925.59;5091606;28;20100;-69
2022/10/31 08:00:05;;;;;;;21.58;12.05;;;;;;;10.81;100.00;101930.09;5091659;28;20023;-69
2022/10/31 08:02:31;;;;;;;23.67;14.57;;;;;;;10.86;100.00;101916.25;5091631;28;20641;-69
2022/10/31 08:04:56;;;;;;;24.25;14.70;;;;;;;10.95;100.00;101913.38;5072169;28;20103;-69
2022/10/31 08:07:22;;;;;;;24.27;14.30;;;;;;;11.12;100.00;101934.66;5070391;28;20043;-68
2022/10/31 08:09:47;;;;;;;25.85;14.90;;;;;;;11.26;100.00;101936.56;5071890;28;20247;-69
2022/10/31 08:12:12;;;;;;;22.15;14.98;;;;;;;11.37;100.00;101938.03;5071827;28;20060;-69
2022/10/31 08:14:38;;;;;;;25.15;14.35;;;;;;;11.45;100.00;101923.78;5071887;28;20024;-69
2022/10/31 08:17:03;;;;;;;24.85;14.65;;;;;;;11.47;100.00;101913.78;5071856;28;20040;-71
2022/10/31 08:19:28;;;;;;;27.00;17.08;;;;;;;11.65;100.00;101929.53;5076480;28;20039;-69
2022/10/31 08:21:54;;;;;;;30.85;19.33;;;;;;;11.81;100.00;101932.09;5077733;28;20145;-69
2022/10/31 08:24:21;;;;;;;32.45;23.38;;;;;;;11.93;100.00;101943.25;5071748;28;20032;-69
2022/10/31 08:26:47;;;;;;;27.02;18.17;;;;;;;12.05;100.00;101926.59;5071512;28;20367;-69
2022/10/31 08:29:12;;;;;;;30.75;20.02;;;;;;;12.24;100.00;101935.94;5064356;28;20024;-72
2022/10/31 08:31:38;;;;;;;36.08;22.13;;;;;;;12.43;100.00;101931.94;5065953;28;20356;-72
2022/10/31 08:34:04;;;;;;;34.00;19.60;;;;;;;12.61;100.00;101915.53;5067016;28;20037;-72
2022/10/31 08:36:29;;;;;;;27.58;17.98;;;;;;;12.74;100.00;101914.06;5066038;28;20067;-70
2022/10/31 08:38:55;;;;;;;32.42;18.95;;;;;;;12.86;100.00;101899.16;5047562;28;20036;-71
2022/10/31 08:41:20;;;;;;;31.58;19.05;;;;;;;13.03;100.00;101911.34;5065817;28;20055;-68
2022/10/31 08:43:46;;;;;;;32.47;18.52;;;;;;;13.15;100.00;101901.81;5065839;28;20051;-69
2022/10/31 08:46:11;;;;;;;29.98;17.50;;;;;;;13.34;100.00;101913.00;5066499;28;20100;-70
2022/10/31 08:48:37;;;;;;;29.65;18.17;;;;;;;13.42;100.00;101907.53;5065597;28;20028;-70
2022/10/31 08:51:02;;;;;;;26.60;16.38;;;;;;;13.54;100.00;101905.97;5049169;28;20111;-70
2022/10/31 08:53:28;;;;;;;28.98;16.60;;;;;;;13.59;100.00;101916.13;5066417;28;20078;-70
2022/10/31 08:55:55;;;;;;;28.40;16.77;;;;;;;13.61;100.00;101908.75;5066198;28;20025;-69
2022/10/31 08:58:21;;;;;;;26.92;16.42;;;;;;;13.57;100.00;101884.19;5064810;28;20495;-69
2022/10/31 09:00:48;;;;;;;28.92;17.50;;;;;;;13.52;100.00;101856.28;5065735;28;20033;-69
2022/10/31 09:03:16;;;;;;;28.30;16.40;;;;;;;13.43;100.00;101847.53;5065599;28;20027;-69
2022/10/31 09:05:42;;;;;;;27.70;17.15;;;;;;;13.39;100.00;101857.00;5065101;28;20024;-68
2022/10/31 09:08:08;;;;;;;27.73;15.77;;;;;;;13.36;100.00;101860.88;5065001;28;20138;-70
2022/10/31 09:10:35;;;;;;;27.10;16.95;;;;;;;13.37;100.00;101861.69;5065307;28;20115;-70
2022/10/31 09:13:07;;;;;;;26.23;15.80;;;;;;;13.38;100.00;101866.84;5065313;28;20024;-70
2022/10/31 09:15:35;;;;;;;28.80;17.42;;;;;;;13.40;100.00;101866.69;5065089;28;20032;-70
2022/10/31 09:18:01;;;;;;;27.55;16.30;;;;;;;13.45;100.00;101869.63;5047371;28;20016;-70
2022/10/31 09:20:28;;;;;;;27.50;16.67;;;;;;;13.46;100.00;101860.53;5064560;28;20032;-70
2022/10/31 09:22:58;;;;;;;27.92;15.95;;;;;;;13.50;100.00;101852.97;5065718;28;20032;-72
2022/10/31 09:25:23;;;;;;;25.42;15.65;;;;;;;13.52;100.00;101867.03;5046796;28;20028;-71
2022/10/31 09:27:48;;;;;;;27.77;17.33;;;;;;;13.70;100.00;101906.75;5046342;28;20032;-72
2022/10/31 09:30:14;;;;;;;32.30;18.42;;;;;;;13.93;100.00;101903.88;5063671;28;20032;-70
2022/10/31 09:32:39;;;;;;;31.77;19.13;;;;;;;14.21;100.00;101880.59;5071561;28;20036;-71
2022/10/31 09:35:05;;;;;;;33.33;18.77;;;;;;;14.42;100.00;101868.97;5052638;28;20024;-72
2022/10/31 09:37:31;;;;;;;31.65;18.48;;;;;;;14.54;100.00;101857.69;5077398;28;20019;-72
2022/10/31 09:39:56;;;;;;;28.67;17.00;;;;;;;14.47;100.00;101836.16;5085273;28;20035;-71
2022/10/31 09:42:40;;;;;;;29.30;17.30;;;;;;;14.57;100.00;101860.00;5090020;28;20024;-71
2022/10/31 09:45:34;;;;;;;32.28;19.40;;;;;;;14.57;100.00;101857.31;5089549;28;20020;-70
2022/10/31 09:48:15;;;;;;;27.70;16.63;;;;;;;14.59;100.00;101829.25;5089777;28;20044;-70
2022/10/31 09:50:53;;;;;;;40.80;21.53;;;;;;;14.58;100.00;101824.91;5089961;28;20433;-71
2022/10/31 09:53:43;;;;;;;33.58;19.98;;;;;;;14.58;100.00;101816.84;5089756;28;20382;-70
2022/10/31 09:56:13;;;;;;;34.38;18.80;;;;;;;14.49;100.00;101818.00;5089859;28;20028;-70
2022/10/31 09:58:43;;;;;;;29.55;17.98;;;;;;;14.45;100.00;101806.00;5089861;28;20024;-70
2022/10/31 10:01:31;;;;;;;33.17;19.63;;;;;;;14.43;100.00;101811.56;5088736;28;20024;-70
2022/10/31 10:04:11;;;;;;;40.25;21.33;;;;;;;14.40;100.00;101816.50;5089708;28;20027;-71
2022/10/31 10:06:46;;;;;;;33.47;23.13;;;;;;;14.42;100.00;101811.78;5089381;28;20016;-71
2022/10/31 10:09:12;;;;;;;35.03;21.13;;;;;;;14.50;100.00;101822.34;5081766;28;20028;-71
2022/10/31 10:11:47;;;;;;;37.50;21.77;;;;;;;14.53;100.00;101816.59;5077116;28;20105;-71
2022/10/31 10:15:05;;;;;;;34.60;22.48;;;;;;;14.64;100.00;101828.63;5077057;28;20463;-74
2022/10/31 10:18:00;;;;;;;33.45;22.23;;;;;;;14.68;100.00;101822.66;5021588;28;20036;-78
2022/10/31 10:20:38;;;;;;;36.08;21.33;;;;;;;14.71;100.00;101817.94;5076673;28;20020;-74
2022/10/31 10:23:22;;;;;;;33.17;21.42;;;;;;;14.80;100.00;101806.81;5077552;28;20083;-74
2022/10/31 10:25:52;;;;;;;34.33;24.33;;;;;;;14.84;100.00;101799.19;5075958;28;20535;-74
2022/10/31 10:28:18;;;;;;;34.50;22.45;;;;;;;14.99;100.00;101783.72;5050857;28;20466;-74
2022/10/31 10:31:28;;;;;;;33.78;22.58;;;;;;;15.27;100.00;101791.66;5056855;28;20024;-74
2022/10/31 10:34:12;;;;;;;38.08;23.48;;;;;;;15.35;100.00;101790.59;4983097;28;20474;-74
2022/10/31 10:36:44;;;;;;;35.20;22.35;;;;;;;15.37;100.00;101775.09;4967391;28;20043;-74
2022/10/31 10:39:29;;;;;;;;;;;;;;;15.51;100.00;101773.25;5001895;28;20487;-74
2022/10/31 10:47:43;;;;;;;34.10;20.98;;;;;;;15.47;100.00;101754.00;5045105;28;20044;-74
2022/10/31 10:50:19;;;;;;;31.83;20.75;;;;;;;15.51;100.00;101749.88;5044645;28;20017;-74
2022/10/31 10:52:59;;;;;;;38.65;22.42;;;;;;;15.61;100.00;101745.94;5045057;28;20037;-72
2022/10/31 10:56:03;;;;;;;33.00;21.50;;;;;;;15.74;100.00;101754.03;5046194;28;20113;-71
2022/10/31 10:58:29;;;;;;;37.40;23.42;;;;;;;15.76;100.00;101751.97;4983002;28;20041;-70
2022/10/31 11:00:55;;;;;;;33.30;21.27;;;;;;;15.76;100.00;101752.78;4983629;28;20045;-70
2022/10/31 11:03:20;;;;;;;34.20;21.25;;;;;;;15.83;100.00;101766.25;5011461;28;20443;-71
2022/10/31 11:05:54;;;;;;;33.42;21.95;;;;;;;15.88;100.00;101758.38;5045048;28;20027;-70
2022/10/31 11:08:38;;;;;;;40.10;22.40;;;;;;;15.98;100.00;101739.06;5044300;28;20017;-70
2022/10/31 11:11:07;;;;;;;32.22;23.05;;;;;;;15.97;100.00;101732.06;5044625;28;20029;-73
2022/10/31 11:13:34;;;;;;;36.63;25.42;;;;;;;16.07;100.00;101727.06;5048013;28;20029;-71
2022/10/31 11:16:07;;;;;;;34.33;22.08;;;;;;;16.11;100.00;101736.38;5052699;28;20037;-71
2022/10/31 11:18:37;;;;;;;34.42;22.50;;;;;;;16.18;100.00;101749.81;5053429;28;20025;-71
2022/10/31 11:21:05;;;;;;;34.15;22.10;;;;;;;16.25;100.00;101739.03;5052277;28;20416;-71
2022/10/31 11:23:31;;;;;;;34.70;22.88;;;;;;;16.34;100.00;101740.44;5051106;28;20499;-71